CZ-0026 weather

University Hospital Pilsen Helipad
Plzeň-Lochotín, Plzeň Region, Czechia

Public forecast

Using degrees Celsius for public forecast. Weather courtesy of forecast.io.

Closest aviation weather report (METAR) to University Hospital Pilsen Helipad

Closest report is Plzeň-Líně Airport, 6.6 nm (12.3 km) SW. Retrieved 2019/10/22 02:37 UTC (0 seconds ago):

LKLN 220237Z AUTO 08002KT 0100 FG VV002 09/09 Q1022

Closest aviation forecast (TAF) to University Hospital Pilsen Helipad

Closest forecast is Karlovy Vary International Airport, 31.8 nm (59.0 km) NW. Retrieved 2019-10-22 00:16 UTC (2 hours ago):

TAF LKKV 212300Z 2200/2306 VRB02KT CAVOK BECMG 2200/2203 2500 BR BCFG FEW003 BECMG 2203/2204 1200 BR BCFG BKN003 TEMPO 2204/2207 0700 FG BKN002 BECMG 2208/2211 6000 SCT003 BECMG 2219/2221 3000 BR SCT003 BECMG 2221/2300 1200 BR MIFG SCT002 TEMPO 2300/2306 0600 FG